Time;durP1;ratioP1;P1;durP2;ratioP2;P2;SDS_P1;SDS_P2;PMS_P1;PMS_P2;Temp;Humidity;BMP_temperature;BMP_pressure;BME280_temperature;BME280_humidity;BME280_pressure;Samples;Min_cycle;Max_cycle;Signal;HPM_P1;HPM_P2
2023/10/02 00:01:10;;;;;;;15.85;7.85;;;16.70;99.90;;;;;;4920839;29;20203;-81
2023/10/02 00:03:40;;;;;;;17.38;7.50;;;16.60;99.90;;;;;;4934858;29;20585;-81
2023/10/02 00:06:09;;;;;;;13.45;6.82;;;16.90;99.90;;;;;;4943347;29;20678;-80
2023/10/02 00:08:42;;;;;;;15.23;7.18;;;16.50;99.90;;;;;;4933534;29;20235;-80
2023/10/02 00:11:36;;;;;;;13.95;7.00;;;16.50;99.90;;;;;;4939967;29;20318;-80
2023/10/02 00:14:20;;;;;;;17.05;7.70;;;16.50;99.90;;;;;;4923493;29;20294;-81
2023/10/02 00:17:00;;;;;;;14.57;7.60;;;16.50;99.90;;;;;;4932461;29;20641;-81
2023/10/02 00:19:27;;;;;;;14.10;7.45;;;16.50;99.90;;;;;;4939568;29;20694;-81
2023/10/02 00:21:57;;;;;;;16.50;7.30;;;16.50;99.90;;;;;;4939597;29;20195;-80
2023/10/02 00:24:25;;;;;;;13.38;7.50;;;16.40;99.90;;;;;;4935953;29;20581;-81
2023/10/02 00:26:57;;;;;;;18.50;7.20;;;16.30;99.90;;;;;;4938781;29;20242;-82
2023/10/02 00:29:25;;;;;;;14.20;7.47;;;16.20;99.90;;;;;;4946071;28;20238;-81
2023/10/02 00:31:52;;;;;;;15.15;7.47;;;16.10;99.90;;;;;;4939495;29;20698;-82
2023/10/02 00:34:30;;;;;;;15.25;7.40;;;16.10;99.90;;;;;;4924451;29;20203;-82
2023/10/02 00:36:59;;;;;;;16.90;7.30;;;16.20;99.90;;;;;;4939606;29;20211;-80
2023/10/02 00:39:30;;;;;;;16.52;6.90;;;16.10;99.90;;;;;;4939276;29;20231;-81
2023/10/02 00:42:16;;;;;;;15.50;7.18;;;16.00;99.90;;;;;;4939217;29;20206;-82
2023/10/02 00:44:52;;;;;;;12.63;6.50;;;16.10;99.90;;;;;;4937956;29;20206;-81
2023/10/02 00:47:41;;;;;;;14.60;7.05;;;16.00;99.90;;;;;;4938654;29;20632;-81
2023/10/02 00:50:19;;;;;;;16.65;7.50;;;16.00;99.90;;;;;;4938568;29;20199;-82
2023/10/02 00:52:56;;;;;;;16.05;7.70;;;16.00;99.90;;;;;;4939116;29;20223;-80
2023/10/02 00:55:26;;;;;;;14.18;6.88;;;16.00;99.90;;;;;;4920165;29;20246;-81
2023/10/02 00:57:57;;;;;;;15.60;7.40;;;16.00;99.90;;;;;;4929495;29;20230;-81
2023/10/02 01:00:35;;;;;;;16.10;7.75;;;15.90;99.90;;;;;;4926079;29;20198;-81
2023/10/02 01:03:04;;;;;;;13.90;6.78;;;15.90;99.90;;;;;;4919392;29;20628;-81
2023/10/02 01:05:42;;;;;;;14.30;6.65;;;15.90;99.90;;;;;;4932856;29;20203;-81
2023/10/02 01:08:23;;;;;;;14.52;6.97;;;15.90;99.90;;;;;;4939539;29;20238;-81
2023/10/02 01:10:56;;;;;;;14.05;6.75;;;15.90;99.90;;;;;;4938996;29;20675;-81
2023/10/02 01:13:28;;;;;;;14.13;7.03;;;15.90;99.90;;;;;;4939377;29;20250;-80
2023/10/02 01:15:56;;;;;;;15.07;7.72;;;15.80;99.90;;;;;;4939022;29;20583;-80
2023/10/02 01:18:27;;;;;;;14.45;7.18;;;15.90;99.90;;;;;;4938787;29;20229;-81
2023/10/02 01:20:56;;;;;;;17.67;6.72;;;15.90;99.90;;;;;;4938853;29;20211;-80
2023/10/02 01:23:26;;;;;;;14.88;7.15;;;15.80;99.90;;;;;;4938877;29;20625;-81
2023/10/02 01:26:00;;;;;;;15.02;7.63;;;15.70;99.90;;;;;;4934558;29;20222;-81
2023/10/02 01:28:30;;;;;;;14.45;6.95;;;15.70;99.90;;;;;;4942971;29;20242;-81
2023/10/02 01:30:56;;;;;;;15.15;6.97;;;15.50;99.90;;;;;;4942260;29;20213;-82
2023/10/02 01:33:26;;;;;;;13.82;6.75;;;15.40;99.90;;;;;;4942753;29;20210;-81
2023/10/02 01:35:55;;;;;;;14.20;7.00;;;15.40;99.90;;;;;;4941396;29;20206;-81
2023/10/02 01:38:29;;;;;;;15.38;6.70;;;15.40;99.90;;;;;;4935047;29;20238;-81
2023/10/02 01:41:04;;;;;;;15.57;7.07;;;15.40;99.90;;;;;;4942041;29;20211;-80
2023/10/02 01:43:35;;;;;;;15.77;7.45;;;15.30;99.90;;;;;;4940967;29;20214;-81
2023/10/02 01:46:05;;;;;;;14.93;6.65;;;15.20;99.90;;;;;;4952822;29;20237;-81
2023/10/02 01:48:48;;;;;;;12.52;6.80;;;15.20;99.90;;;;;;4940973;29;20222;-81
2023/10/02 01:51:20;;;;;;;15.88;7.15;;;15.20;99.90;;;;;;4940101;29;20266;-81
2023/10/02 01:53:48;;;;;;;15.63;7.10;;;15.20;99.90;;;;;;4940773;29;20637;-81
2023/10/02 01:56:17;;;;;;;15.93;6.97;;;15.20;99.90;;;;;;4930022;29;20246;-81
2023/10/02 01:58:48;;;;;;;14.57;7.28;;;15.20;99.90;;;;;;4927903;29;20235;-81
2023/10/02 02:01:16;;;;;;;16.20;7.25;;;15.20;99.90;;;;;;4941225;29;20258;-81
2023/10/02 02:03:46;;;;;;;12.23;6.82;;;15.10;99.90;;;;;;4942246;29;20646;-81
2023/10/02 02:06:17;;;;;;;16.45;7.25;;;15.20;99.90;;;;;;4928956;29;20218;-81
2023/10/02 02:08:47;;;;;;;18.50;7.63;;;15.10;99.90;;;;;;4940747;29;20322;-82
2023/10/02 02:11:23;;;;;;;15.70;7.20;;;15.20;99.90;;;;;;4941708;29;20876;-81
2023/10/02 02:13:51;;;;;;;13.80;7.10;;;15.20;99.90;;;;;;4942212;29;20655;-82
2023/10/02 02:16:25;;;;;;;14.45;6.93;;;15.10;99.90;;;;;;4942168;29;20207;-81
2023/10/02 02:18:53;;;;;;;15.02;7.55;;;15.00;99.90;;;;;;4941757;29;20600;-81
2023/10/02 02:21:24;;;;;;;17.25;7.35;;;15.00;99.90;;;;;;4947357;29;20263;-82
2023/10/02 02:24:03;;;;;;;17.77;7.97;;;15.10;99.90;;;;;;4949721;28;20199;-81
2023/10/02 02:26:31;;;;;;;15.93;7.38;;;15.00;99.90;;;;;;4941454;29;20207;-81
2023/10/02 02:29:01;;;;;;;16.02;6.43;;;15.20;99.90;;;;;;4941449;29;20235;-81
2023/10/02 02:31:32;;;;;;;15.55;7.03;;;14.90;99.90;;;;;;4937310;29;20218;-80
2023/10/02 02:34:01;;;;;;;12.73;7.18;;;14.90;99.90;;;;;;4938253;29;20230;-81
2023/10/02 02:36:34;;;;;;;17.75;7.07;;;14.60;99.90;;;;;;4948072;29;20289;-80
2023/10/02 02:39:17;;;;;;;17.60;8.13;;;14.70;99.90;;;;;;4944202;28;20236;-81
2023/10/02 02:41:47;;;;;;;17.55;6.72;;;14.70;99.90;;;;;;4944108;29;20222;-81
2023/10/02 02:44:36;;;;;;;17.15;7.72;;;14.70;99.90;;;;;;4941474;29;20199;-80
2023/10/02 02:47:07;;;;;;;17.77;7.30;;;14.60;99.90;;;;;;4941945;29;20740;-81
2023/10/02 02:49:48;;;;;;;17.23;7.57;;;14.70;99.90;;;;;;4934538;29;20232;-81
2023/10/02 02:52:17;;;;;;;17.25;7.95;;;14.70;99.90;;;;;;4940660;29;20227;-81
2023/10/02 02:54:47;;;;;;;16.88;7.78;;;14.70;99.90;;;;;;4934246;29;20574;-81
2023/10/02 02:57:18;;;;;;;17.55;7.47;;;14.80;99.90;;;;;;4932386;29;20205;-81
2023/10/02 02:59:46;;;;;;;14.80;7.30;;;14.70;99.90;;;;;;4940813;29;20278;-81
2023/10/02 03:02:21;;;;;;;14.85;8.07;;;14.60;99.90;;;;;;4938157;29;20574;-81
2023/10/02 03:04:51;;;;;;;14.77;7.57;;;14.60;99.90;;;;;;4922859;29;20710;-81
2023/10/02 03:07:29;;;;;;;18.48;7.38;;;14.60;99.90;;;;;;4938085;29;20216;-81
2023/10/02 03:10:02;;;;;;;14.93;7.10;;;14.50;99.90;;;;;;4928019;29;20302;-81
2023/10/02 03:12:31;;;;;;;18.40;8.25;;;14.50;99.90;;;;;;4941311;29;20652;-81
2023/10/02 03:14:57;;;;;;;14.50;7.15;;;14.50;99.90;;;;;;4941446;29;20211;-80
2023/10/02 03:17:31;;;;;;;19.27;7.35;;;14.60;99.90;;;;;;4933176;29;20218;-80
2023/10/02 03:20:00;;;;;;;16.08;7.65;;;14.60;99.90;;;;;;4940661;29;20286;-80
2023/10/02 03:22:33;;;;;;;15.48;7.70;;;14.50;99.90;;;;;;4933417;29;20700;-80
2023/10/02 03:25:24;;;;;;;14.75;7.30;;;14.40;99.90;;;;;;4928774;29;20207;-81
2023/10/02 03:27:54;;;;;;;17.80;7.40;;;14.40;99.90;;;;;;4939655;29;20227;-81
2023/10/02 03:30:35;;;;;;;17.05;7.75;;;14.50;99.90;;;;;;4939992;29;20227;-82
2023/10/02 03:33:16;;;;;;;15.35;6.97;;;14.50;99.90;;;;;;4942086;29;20235;-81
2023/10/02 03:35:51;;;;;;;17.15;8.23;;;14.50;99.90;;;;;;4939735;29;20217;-82
2023/10/02 03:38:23;;;;;;;16.10;7.45;;;14.50;99.90;;;;;;4921487;29;20239;-82
2023/10/02 03:40:54;;;;;;;15.88;7.75;;;14.50;99.90;;;;;;4921314;29;20218;-81
2023/10/02 03:43:34;;;;;;;15.20;7.45;;;14.50;99.90;;;;;;4932989;29;20213;-82
2023/10/02 03:46:01;;;;;;;18.00;7.97;;;14.50;99.90;;;;;;4939877;29;20195;-82
2023/10/02 03:48:28;;;;;;;16.00;6.93;;;14.40;99.90;;;;;;4940091;29;20238;-81
2023/10/02 03:50:56;;;;;;;19.80;7.85;;;14.50;99.90;;;;;;4939633;29;20214;-82
2023/10/02 03:53:30;;;;;;;17.30;7.95;;;14.50;99.90;;;;;;4939827;29;20569;-82
2023/10/02 03:56:36;;;;;;;16.23;7.57;;;14.50;99.90;;;;;;4939603;29;20588;-81
2023/10/02 03:58:50;;;;;;;16.00;7.60;;;14.40;99.90;;;;;;4931720;29;20722;-82
2023/10/02 04:01:26;;;;;;;18.52;7.70;;;14.50;99.90;;;;;;4939784;29;20242;-82
2023/10/02 04:04:04;;;;;;;14.55;6.90;;;14.40;99.90;;;;;;4939598;29;20576;-82
2023/10/02 04:06:34;;;;;;;16.50;7.60;;;14.40;99.90;;;;;;4939961;29;20191;-82
2023/10/02 04:09:13;;;;;;;17.05;7.32;;;14.40;99.90;;;;;;4938824;29;20325;-82
2023/10/02 04:11:42;;;;;;;15.02;7.43;;;14.40;99.90;;;;;;4933260;29;20222;-81
2023/10/02 04:14:18;;;;;;;14.57;7.43;;;14.30;99.90;;;;;;4922743;29;20199;-81
2023/10/02 04:16:49;;;;;;;16.55;7.18;;;14.10;99.90;;;;;;4939292;29;20199;-82
2023/10/02 04:19:16;;;;;;;18.20;7.20;;;14.10;99.90;;;;;;4937406;29;20717;-81
2023/10/02 04:21:45;;;;;;;15.90;7.65;;;14.00;99.90;;;;;;4939726;29;20694;-82
2023/10/02 04:24:13;;;;;;;15.38;7.25;;;14.10;99.90;;;;;;4938852;29;20214;-82
2023/10/02 04:26:41;;;;;;;15.82;7.32;;;14.20;99.90;;;;;;4937859;29;20213;-81
2023/10/02 04:29:26;;;;;;;15.80;7.35;;;14.30;99.90;;;;;;4938303;29;20667;-81
2023/10/02 04:34:50;;;;;;;16.67;7.82;;;14.20;99.90;;;;;;4940250;28;20203;-82
2023/10/02 04:37:19;;;;;;;13.40;6.72;;;14.30;99.90;;;;;;4938340;29;20671;-82
2023/10/02 04:39:54;;;;;;;14.15;6.50;;;14.20;99.90;;;;;;4938769;29;20284;-81
2023/10/02 04:42:21;;;;;;;15.43;6.80;;;14.20;99.90;;;;;;4939070;29;20206;-82
2023/10/02 04:44:56;;;;;;;15.50;7.18;;;14.30;99.90;;;;;;4938577;29;20202;-82
2023/10/02 04:47:26;;;;;;;15.80;7.67;;;14.30;99.90;;;;;;4945720;29;20258;-82
2023/10/02 04:53:04;;;;;;;16.77;7.22;;;14.10;99.90;;;;;;4938918;29;20727;-82
2023/10/02 04:55:41;;;;;;;15.75;7.10;;;14.00;99.90;;;;;;4938728;29;20254;-82
2023/10/02 04:58:13;;;;;;;16.90;7.20;;;13.80;99.90;;;;;;4938379;29;20235;-82
2023/10/02 05:01:17;;;;;;;15.27;7.47;;;13.70;99.90;;;;;;4935171;29;20207;-82
2023/10/02 05:03:28;;;;;;;17.08;7.38;;;13.70;99.90;;;;;;4931872;29;20210;-82
2023/10/02 05:05:58;;;;;;;14.23;6.68;;;13.60;99.90;;;;;;4937227;29;20262;-82
2023/10/02 05:08:33;;;;;;;18.58;8.13;;;13.70;99.90;;;;;;4936100;29;20322;-81
2023/10/02 05:11:06;;;;;;;16.88;7.68;;;13.80;99.90;;;;;;4947823;29;20198;-82
2023/10/02 05:16:26;;;;;;;15.88;7.55;;;13.90;99.90;;;;;;4938589;29;20209;-82
2023/10/02 05:18:54;;;;;;;14.75;6.82;;;13.80;99.90;;;;;;4951796;29;20250;-81
2023/10/02 05:21:35;;;;;;;18.30;7.87;;;14.00;99.90;;;;;;4937211;29;20546;-81
2023/10/02 05:24:03;;;;;;;15.50;7.70;;;13.80;99.90;;;;;;4936387;29;20266;-81
2023/10/02 05:26:38;;;;;;;16.77;7.47;;;14.10;99.90;;;;;;4937496;29;20215;-81
2023/10/02 05:29:06;;;;;;;17.67;8.73;;;14.00;99.90;;;;;;4918508;29;20235;-81
2023/10/02 05:31:35;;;;;;;16.30;7.15;;;14.30;99.90;;;;;;4925354;29;20211;-82
2023/10/02 05:34:09;;;;;;;17.93;7.50;;;14.00;99.90;;;;;;4936734;29;20707;-81
2023/10/02 05:36:36;;;;;;;15.40;7.50;;;13.90;99.90;;;;;;4937020;29;20211;-81
2023/10/02 05:39:28;;;;;;;19.00;9.50;;;13.90;99.90;;;;;;4936956;29;20249;-80
2023/10/02 05:42:05;;;;;;;18.27;9.07;;;14.10;99.90;;;;;;4937168;29;20218;-81
2023/10/02 05:44:33;;;;;;;16.70;7.40;;;14.20;99.90;;;;;;4936815;29;20594;-81
2023/10/02 05:47:08;;;;;;;18.13;9.43;;;14.20;99.90;;;;;;4951957;29;20214;-81
2023/10/02 05:49:43;;;;;;;18.92;9.60;;;14.40;99.90;;;;;;4931262;29;20318;-80
2023/10/02 05:52:10;;;;;;;21.73;12.37;;;14.40;99.90;;;;;;4919705;29;20196;-81
2023/10/02 05:54:36;;;;;;;17.03;7.70;;;14.60;99.90;;;;;;4936405;29;20246;-81
2023/10/02 05:57:11;;;;;;;17.37;7.60;;;14.70;99.90;;;;;;4927989;29;20247;-80
2023/10/02 05:59:45;;;;;;;17.73;8.27;;;14.70;99.90;;;;;;4931162;29;20707;-81
2023/10/02 06:02:12;;;;;;;19.02;8.15;;;14.90;99.90;;;;;;4928409;29;20207;-81
2023/10/02 06:04:47;;;;;;;16.52;8.07;;;15.00;99.90;;;;;;4935944;29;20214;-81
2023/10/02 06:07:19;;;;;;;17.38;8.45;;;14.90;99.90;;;;;;4930109;29;20287;-80
2023/10/02 06:09:47;;;;;;;17.33;7.80;;;14.80;99.90;;;;;;4934177;29;20203;-80
2023/10/02 06:12:15;;;;;;;15.98;8.00;;;14.90;99.90;;;;;;4937198;29;20246;-80
2023/10/02 06:14:43;;;;;;;17.25;8.60;;;15.00;99.90;;;;;;4939061;29;20293;-81
2023/10/02 06:17:11;;;;;;;16.10;7.57;;;15.00;99.90;;;;;;4933147;29;20285;-81
2023/10/02 06:19:44;;;;;;;16.30;8.18;;;15.00;99.90;;;;;;4937429;29;20229;-80
2023/10/02 06:22:13;;;;;;;17.13;7.85;;;15.10;99.90;;;;;;4936762;29;20705;-81
2023/10/02 06:24:41;;;;;;;15.95;7.18;;;15.10;99.90;;;;;;4936684;29;20238;-81
2023/10/02 06:27:13;;;;;;;34.05;21.35;;;15.20;99.90;;;;;;4935969;29;20211;-81
2023/10/02 06:29:44;;;;;;;19.50;9.43;;;15.40;99.90;;;;;;4929706;29;20266;-80
2023/10/02 06:32:16;;;;;;;17.30;8.18;;;15.60;99.90;;;;;;4931521;29;20203;-80
2023/10/02 06:34:45;;;;;;;14.20;7.05;;;15.60;99.90;;;;;;4939743;29;20231;-80
2023/10/02 06:37:13;;;;;;;18.00;7.75;;;15.80;99.90;;;;;;4940524;29;20215;-81
2023/10/02 06:39:41;;;;;;;17.73;8.05;;;16.00;99.90;;;;;;4946327;29;20253;-82
2023/10/02 06:42:08;;;;;;;15.18;7.47;;;16.10;99.90;;;;;;4935199;29;20218;-81
2023/10/02 06:44:40;;;;;;;17.98;8.00;;;16.20;99.90;;;;;;4940615;29;20219;-81
2023/10/02 06:47:13;;;;;;;16.95;8.13;;;16.20;99.90;;;;;;4937316;29;20233;-80
2023/10/02 06:49:41;;;;;;;18.20;7.88;;;16.30;99.90;;;;;;4938699;29;20227;-82
2023/10/02 06:52:15;;;;;;;15.95;7.47;;;16.30;99.90;;;;;;4939698;29;20227;-82
2023/10/02 06:54:43;;;;;;;17.52;8.38;;;16.40;99.90;;;;;;4937866;29;20230;-82
2023/10/02 06:57:13;;;;;;;15.68;7.70;;;16.50;99.90;;;;;;4929798;29;20653;-81
2023/10/02 06:59:41;;;;;;;15.32;7.82;;;16.70;99.90;;;;;;4937716;29;20230;-81
2023/10/02 07:02:09;;;;;;;17.35;7.22;;;16.80;99.90;;;;;;4933900;29;20627;-81
2023/10/02 07:04:37;;;;;;;19.23;8.50;;;16.90;99.90;;;;;;4939218;29;20199;-82
2023/10/02 07:07:04;;;;;;;17.77;7.85;;;17.00;99.90;;;;;;4934214;29;20644;-80
2023/10/02 07:09:35;;;;;;;14.73;7.75;;;17.10;99.90;;;;;;4939589;29;20616;-80
2023/10/02 07:12:14;;;;;;;15.50;7.47;;;17.10;99.90;;;;;;4943856;29;20261;-80
2023/10/02 07:14:43;;;;;;;17.88;8.20;;;17.20;99.90;;;;;;4934892;29;20219;-81
2023/10/02 07:17:17;;;;;;;17.10;7.88;;;17.20;99.90;;;;;;4945197;29;20203;-80
2023/10/02 07:19:52;;;;;;;16.92;7.63;;;17.30;99.90;;;;;;4931884;29;20595;-81
2023/10/02 07:22:23;;;;;;;15.68;7.32;;;17.40;99.90;;;;;;4931765;29;20581;-81
2023/10/02 07:24:55;;;;;;;17.63;8.57;;;17.40;99.90;;;;;;4946401;28;20226;-81
2023/10/02 07:27:23;;;;;;;18.05;8.68;;;17.50;99.90;;;;;;4923868;29;20208;-81
2023/10/02 07:29:52;;;;;;;16.73;8.05;;;18.50;99.90;;;;;;4934791;29;20207;-81
2023/10/02 07:32:20;;;;;;;12.80;7.18;;;18.10;99.90;;;;;;4936727;29;20210;-81
2023/10/02 07:34:48;;;;;;;17.50;7.72;;;18.30;99.90;;;;;;4931233;29;20634;-81
2023/10/02 07:37:21;;;;;;;17.02;7.80;;;18.30;99.90;;;;;;4930573;29;20211;-82
2023/10/02 07:39:56;;;;;;;15.63;7.38;;;18.30;99.90;;;;;;4942556;29;20239;-80
2023/10/02 07:42:24;;;;;;;18.10;8.68;;;18.10;99.90;;;;;;4940295;29;20254;-79
2023/10/02 07:44:52;;;;;;;15.35;6.85;;;17.90;99.90;;;;;;4925562;29;20263;-81
2023/10/02 07:47:20;;;;;;;17.65;8.63;;;17.80;99.90;;;;;;4935863;29;20589;-81
2023/10/02 07:49:51;;;;;;;15.02;7.82;;;17.90;99.90;;;;;;4934257;29;20663;-81
2023/10/02 07:52:29;;;;;;;15.05;7.63;;;18.00;99.90;;;;;;4932394;29;20207;-79
2023/10/02 07:54:59;;;;;;;16.08;7.85;;;18.00;99.90;;;;;;4938834;29;20219;-80
2023/10/02 07:57:30;;;;;;;15.98;7.47;;;18.10;99.90;;;;;;4938972;29;20207;-80
2023/10/02 07:59:58;;;;;;;15.25;7.90;;;18.10;99.90;;;;;;4937711;29;20258;-81
2023/10/02 08:02:30;;;;;;;15.55;7.60;;;18.20;99.90;;;;;;4937058;29;20206;-81
2023/10/02 08:04:59;;;;;;;16.67;7.85;;;18.30;99.90;;;;;;4929107;29;20672;-82
2023/10/02 08:07:26;;;;;;;16.38;7.30;;;18.40;99.90;;;;;;4947671;29;20269;-81
2023/10/02 08:09:55;;;;;;;16.10;7.75;;;18.50;99.90;;;;;;4957851;29;20203;-81
2023/10/02 08:12:34;;;;;;;16.63;8.00;;;18.60;99.90;;;;;;4948104;29;20230;-83
2023/10/02 08:15:26;;;;;;;16.33;7.75;;;18.70;99.90;;;;;;4938269;29;20229;-82
2023/10/02 08:18:03;;;;;;;16.98;8.73;;;18.80;99.90;;;;;;4937961;29;20235;-81
2023/10/02 08:20:37;;;;;;;15.88;7.55;;;19.00;99.90;;;;;;4928840;29;20203;-82
2023/10/02 08:23:21;;;;;;;15.15;7.63;;;19.10;99.90;;;;;;4935627;29;20208;-81
2023/10/02 08:26:00;;;;;;;15.38;7.50;;;19.10;99.90;;;;;;4938140;29;20206;-80
2023/10/02 08:28:30;;;;;;;15.40;7.88;;;19.00;99.90;;;;;;4930870;29;20313;-80
2023/10/02 08:31:01;;;;;;;18.23;8.18;;;19.30;99.90;;;;;;4937685;29;20206;-80
2023/10/02 08:33:30;;;;;;;16.33;7.50;;;19.20;99.90;;;;;;4937968;29;20263;-80
2023/10/02 08:35:58;;;;;;;15.70;7.80;;;19.20;99.90;;;;;;4923080;29;20219;-81
2023/10/02 08:38:26;;;;;;;15.93;7.55;;;19.30;99.90;;;;;;4930602;29;20642;-82
2023/10/02 08:41:02;;;;;;;17.58;8.55;;;19.40;99.90;;;;;;4921295;29;20244;-81
2023/10/02 08:43:32;;;;;;;17.67;9.15;;;19.50;99.90;;;;;;4924633;29;20191;-82
2023/10/02 08:45:59;;;;;;;15.75;7.72;;;19.70;99.90;;;;;;4935524;29;20210;-81
2023/10/02 08:48:31;;;;;;;16.33;7.75;;;19.80;99.90;;;;;;4937584;29;20233;-80
2023/10/02 08:51:00;;;;;;;16.60;7.85;;;19.90;99.90;;;;;;4936497;29;20207;-81
2023/10/02 08:53:27;;;;;;;19.23;9.00;;;20.00;99.90;;;;;;4938314;29;20719;-81
2023/10/02 08:56:23;;;;;;;16.50;7.53;;;20.20;99.90;;;;;;4935292;29;20203;-81
2023/10/02 08:59:15;;;;;;;17.77;7.85;;;20.20;99.90;;;;;;4936432;29;20680;-81
2023/10/02 09:01:39;;;;;;;15.23;7.22;;;20.40;99.90;;;;;;4938629;29;20619;-82
2023/10/02 09:04:22;;;;;;;16.98;8.35;;;20.50;99.90;;;;;;4929784;29;20738;-81
2023/10/02 09:06:53;;;;;;;14.48;7.45;;;20.60;99.90;;;;;;4930617;29;20209;-82
2023/10/02 09:09:27;;;;;;;17.17;8.13;;;20.60;99.90;;;;;;4930295;29;20305;-81
2023/10/02 09:11:57;;;;;;;16.75;8.18;;;20.80;99.90;;;;;;4935486;29;20289;-81
2023/10/02 09:17:20;;;;;;;15.55;7.28;;;21.10;99.90;;;;;;4934754;29;20215;-80
2023/10/02 09:19:54;;;;;;;15.05;7.55;;;21.40;99.90;;;;;;4930373;29;20593;-81
2023/10/02 09:22:25;;;;;;;18.92;7.72;;;21.40;99.90;;;;;;4929575;29;20299;-82
2023/10/02 09:27:56;;;;;;;16.58;8.35;;;21.70;99.90;;;;;;4934898;29;20222;-81
2023/10/02 09:30:36;;;;;;;16.33;7.80;;;21.80;99.90;;;;;;4927843;29;20681;-81
2023/10/02 09:33:08;;;;;;;15.80;7.97;;;22.00;99.90;;;;;;4938528;29;20245;-82
2023/10/02 09:35:41;;;;;;;15.48;7.35;;;22.10;99.90;;;;;;4937305;29;20732;-81
2023/10/02 09:38:10;;;;;;;16.88;7.63;;;22.20;99.90;;;;;;4936581;29;20239;-82
2023/10/02 09:41:14;;;;;;;16.45;8.15;;;22.30;99.90;;;;;;4936694;29;20682;-81
2023/10/02 09:43:42;;;;;;;16.63;9.07;;;22.40;99.90;;;;;;4933580;29;20659;-81
2023/10/02 09:46:16;;;;;;;17.25;7.90;;;22.80;99.90;;;;;;4941959;29;20211;-81
2023/10/02 09:48:46;;;;;;;15.68;8.43;;;23.00;99.90;;;;;;4940494;29;20648;-81
2023/10/02 09:51:19;;;;;;;15.82;8.02;;;22.90;99.90;;;;;;4940290;29;20199;-82
2023/10/02 09:54:04;;;;;;;15.52;7.80;;;22.80;99.90;;;;;;4940034;29;20759;-80
2023/10/02 09:56:51;;;;;;;18.02;8.20;;;22.80;99.90;;;;;;4940853;29;20184;-80
2023/10/02 09:59:21;;;;;;;14.50;7.63;;;23.00;99.90;;;;;;4942287;29;20789;-80
2023/10/02 10:08:27;;;;;;;21.23;8.45;;;23.40;99.90;;;;;;4940596;29;20225;-80
2023/10/02 10:10:57;;;;;;;18.40;7.90;;;23.70;99.90;;;;;;4940531;29;20293;-79
2023/10/02 10:13:36;;;;;;;14.30;8.10;;;23.60;99.90;;;;;;4940592;29;20228;-80
2023/10/02 10:16:46;;;;;;;16.20;8.20;;;23.90;99.90;;;;;;4938149;29;20214;-79
2023/10/02 10:22:10;;;;;;;19.73;7.97;;;23.80;99.90;;;;;;4940190;28;20199;-80
2023/10/02 10:24:51;;;;;;;14.75;8.38;;;24.00;99.90;;;;;;4940510;29;20214;-79
2023/10/02 10:27:55;;;;;;;16.52;7.85;;;24.10;99.90;;;;;;4939732;29;20202;-80
2023/10/02 10:30:50;;;;;;;20.02;8.48;;;24.50;99.90;;;;;;4938047;29;20206;-80
2023/10/02 10:33:36;;;;;;;18.25;7.55;;;24.40;99.90;;;;;;4931152;28;20238;-80
2023/10/02 10:36:35;;;;;;;20.23;8.80;;;24.10;99.90;;;;;;4940089;29;20207;-80
2023/10/02 10:39:30;;;;;;;17.90;7.55;;;24.00;99.90;;;;;;4940240;29;20244;-81
2023/10/02 10:42:00;;;;;;;16.98;8.13;;;24.10;99.90;;;;;;4939033;29;20663;-81
2023/10/02 10:44:38;;;;;;;16.17;8.07;;;24.20;99.90;;;;;;4939558;29;20219;-79
2023/10/02 10:47:03;;;;;;;15.88;8.27;;;24.30;99.90;;;;;;4939223;29;20262;-80
2023/10/02 10:50:11;;;;;;;13.55;7.43;;;24.40;99.90;;;;;;4939375;29;20211;-80
2023/10/02 10:52:44;;;;;;;15.38;7.63;;;24.60;99.90;;;;;;4939486;29;20632;-79
2023/10/02 10:55:35;;;;;;;16.30;8.18;;;24.80;99.90;;;;;;4939131;29;20226;-81
2023/10/02 10:58:02;;;;;;;15.65;7.78;;;24.70;99.90;;;;;;4938616;29;20223;-80
2023/10/02 11:00:32;;;;;;;14.32;7.75;;;25.00;99.90;;;;;;4938244;29;20258;-81
2023/10/02 11:03:08;;;;;;;15.18;7.93;;;24.80;99.90;;;;;;4939715;29;20211;-81
2023/10/02 11:05:35;;;;;;;17.95;8.00;;;24.80;99.90;;;;;;4940184;29;20210;-81
2023/10/02 11:08:23;;;;;;;14.98;8.38;;;25.10;99.90;;;;;;4939587;29;20227;-81
2023/10/02 11:11:01;;;;;;;18.23;8.00;;;25.00;99.90;;;;;;4940643;29;20209;-82
2023/10/02 11:13:28;;;;;;;17.92;8.15;;;25.00;99.90;;;;;;4936964;29;20294;-83
2023/10/02 11:16:07;;;;;;;16.13;8.02;;;25.10;99.90;;;;;;4939567;29;20231;-80
2023/10/02 11:18:39;;;;;;;18.23;8.20;;;25.20;99.90;;;;;;4931521;29;20354;-82
2023/10/02 11:21:22;;;;;;;14.15;7.65;;;25.10;99.90;;;;;;4942168;29;20230;-82
2023/10/02 11:23:53;;;;;;;17.35;8.07;;;25.10;99.90;;;;;;4937462;29;20202;-81
2023/10/02 11:26:23;;;;;;;19.27;9.10;;;25.30;99.90;;;;;;4938814;29;20203;-80
2023/10/02 11:28:50;;;;;;;14.77;7.30;;;25.50;99.90;;;;;;4939405;29;20234;-81
2023/10/02 11:31:32;;;;;;;16.33;7.68;;;25.50;99.90;;;;;;4926377;29;20664;-82
2023/10/02 11:34:01;;;;;;;16.10;7.30;;;25.60;99.90;;;;;;4935066;29;20249;-82
2023/10/02 11:36:33;;;;;;;15.75;7.85;;;26.50;99.90;;;;;;4946643;29;20206;-80
2023/10/02 11:39:08;;;;;;;14.70;7.85;;;26.50;99.90;;;;;;4938256;29;20733;-80
2023/10/02 11:41:36;;;;;;;14.35;7.18;;;26.90;99.90;;;;;;4939852;29;20663;-82
2023/10/02 11:44:05;;;;;;;14.57;7.50;;;26.60;99.90;;;;;;4938859;29;20239;-81
2023/10/02 11:46:32;;;;;;;13.10;7.13;;;26.40;99.90;;;;;;4938869;29;20211;-81
2023/10/02 11:48:59;;;;;;;15.00;7.78;;;26.00;99.90;;;;;;4938700;29;20234;-81
2023/10/02 11:51:28;;;;;;;12.98;6.85;;;26.00;99.90;;;;;;4939510;29;20207;-81
2023/10/02 11:53:57;;;;;;;15.93;8.20;;;25.90;99.90;;;;;;4937829;29;20222;-81
2023/10/02 11:56:26;;;;;;;14.18;7.22;;;25.70;99.90;;;;;;4939434;29;20626;-80
2023/10/02 11:58:53;;;;;;;17.95;7.63;;;25.50;99.90;;;;;;4928789;29;20231;-79
2023/10/02 12:01:21;;;;;;;20.27;7.00;;;25.50;99.90;;;;;;4939038;29;20254;-80
2023/10/02 12:03:48;;;;;;;13.75;6.80;;;25.40;99.90;;;;;;4938517;29;20243;-81
2023/10/02 12:06:16;;;;;;;13.55;6.90;;;25.30;99.90;;;;;;4942195;29;20207;-81
2023/10/02 12:08:43;;;;;;;13.70;6.95;;;25.30;99.90;;;;;;4937669;29;20527;-81
2023/10/02 12:11:12;;;;;;;12.60;7.00;;;25.40;99.90;;;;;;4936031;29;20210;-81
2023/10/02 12:13:40;;;;;;;15.30;7.57;;;25.20;99.90;;;;;;4934377;29;20209;-81
2023/10/02 12:16:10;;;;;;;16.02;7.43;;;25.10;99.90;;;;;;4938228;29;20234;-81
2023/10/02 12:18:37;;;;;;;15.55;7.20;;;24.90;99.90;;;;;;4950623;29;20238;-80
2023/10/02 12:21:09;;;;;;;16.75;7.28;;;25.00;99.90;;;;;;4947714;29;20723;-82
2023/10/02 12:23:39;;;;;;;13.77;6.88;;;25.10;99.90;;;;;;4936276;29;20298;-83
2023/10/02 12:26:09;;;;;;;11.95;6.38;;;24.90;99.90;;;;;;4935966;29;20577;-82
2023/10/02 12:28:36;;;;;;;13.52;6.53;;;24.90;99.90;;;;;;4924294;29;20312;-82
2023/10/02 12:31:10;;;;;;;13.07;6.70;;;24.90;99.90;;;;;;4919723;29;20200;-82
2023/10/02 12:33:38;;;;;;;14.68;6.75;;;25.00;99.90;;;;;;4932064;29;20210;-81
2023/10/02 12:36:11;;;;;;;13.18;7.13;;;24.80;99.90;;;;;;4935423;29;20230;-81
2023/10/02 12:38:39;;;;;;;16.10;7.05;;;25.00;99.90;;;;;;4949052;29;20238;-81
2023/10/02 12:41:12;;;;;;;16.80;6.72;;;25.00;99.90;;;;;;4937618;29;20310;-81
2023/10/02 12:43:39;;;;;;;18.02;6.78;;;25.00;99.90;;;;;;4929200;29;20212;-82
2023/10/02 12:46:08;;;;;;;17.38;7.32;;;25.20;99.90;;;;;;4920518;29;20207;-82
2023/10/02 12:48:36;;;;;;;23.50;7.20;;;25.00;99.90;;;;;;4919775;29;20648;-81
2023/10/02 12:51:07;;;;;;;15.13;7.35;;;25.00;99.90;;;;;;4919546;29;20212;-82
2023/10/02 12:53:36;;;;;;;17.10;7.47;;;24.90;99.90;;;;;;4920050;29;20207;-82
2023/10/02 12:56:04;;;;;;;15.27;7.00;;;24.90;99.90;;;;;;4920391;29;20234;-82
2023/10/02 12:58:31;;;;;;;15.73;6.82;;;25.00;99.90;;;;;;4920075;29;20234;-83
2023/10/02 13:01:00;;;;;;;19.90;7.50;;;25.00;99.90;;;;;;4919709;29;20218;-84
2023/10/02 13:03:28;;;;;;;12.07;6.13;;;24.90;99.90;;;;;;4929624;29;20211;-83
2023/10/02 13:05:58;;;;;;;14.25;6.90;;;25.00;99.90;;;;;;4938488;29;20206;-82
2023/10/02 13:08:26;;;;;;;16.13;7.07;;;25.20;99.90;;;;;;4938418;29;20249;-81
2023/10/02 13:10:53;;;;;;;14.43;6.72;;;25.30;99.90;;;;;;4939477;29;20251;-80
2023/10/02 13:13:20;;;;;;;23.92;6.82;;;25.30;99.90;;;;;;4941386;29;20203;-82
2023/10/02 13:15:48;;;;;;;15.27;6.25;;;25.10;99.90;;;;;;4944449;29;20592;-82
2023/10/02 13:18:15;;;;;;;12.80;5.72;;;25.10;99.90;;;;;;4939356;29;20298;-82
2023/10/02 13:20:43;;;;;;;13.80;6.57;;;25.10;99.90;;;;;;4937985;29;20213;-84
2023/10/02 13:23:12;;;;;;;13.77;6.25;;;25.10;99.90;;;;;;4936226;29;20203;-82
2023/10/02 13:25:42;;;;;;;12.48;6.43;;;25.00;99.90;;;;;;4949862;29;20222;-83
2023/10/02 13:28:11;;;;;;;13.52;6.43;;;25.10;99.90;;;;;;4936489;29;20234;-82